sensor_id;sensor_type;location;lat;lon;timestamp;P1;durP1;ratioP1;P2;durP2;ratioP2
40729;SDS011;26418;50.070;8.436;2023-04-03T00:00:15;3.72;;;1.05;;
40729;SDS011;26418;50.070;8.436;2023-04-03T00:02:41;2.50;;;0.90;;
40729;SDS011;26418;50.070;8.436;2023-04-03T00:05:07;4.35;;;1.13;;
40729;SDS011;26418;50.070;8.436;2023-04-03T00:07:32;6.90;;;0.98;;
40729;SDS011;26418;50.070;8.436;2023-04-03T00:09:58;1.38;;;0.68;;
40729;SDS011;26418;50.070;8.436;2023-04-03T00:12:23;3.08;;;1.00;;
40729;SDS011;26418;50.070;8.436;2023-04-03T00:14:49;1.45;;;0.85;;
40729;SDS011;26418;50.070;8.436;2023-04-03T00:17:15;1.38;;;0.80;;
40729;SDS011;26418;50.070;8.436;2023-04-03T00:19:40;1.88;;;0.70;;
40729;SDS011;26418;50.070;8.436;2023-04-03T00:22:06;1.67;;;0.63;;
40729;SDS011;26418;50.070;8.436;2023-04-03T00:24:31;1.50;;;0.88;;
40729;SDS011;26418;50.070;8.436;2023-04-03T00:26:57;3.50;;;1.27;;
40729;SDS011;26418;50.070;8.436;2023-04-03T00:29:23;2.90;;;1.08;;
40729;SDS011;26418;50.070;8.436;2023-04-03T00:31:49;3.15;;;1.00;;
40729;SDS011;26418;50.070;8.436;2023-04-03T00:34:14;5.55;;;1.40;;
40729;SDS011;26418;50.070;8.436;2023-04-03T00:36:40;1.60;;;1.17;;
40729;SDS011;26418;50.070;8.436;2023-04-03T00:39:05;4.47;;;1.00;;
40729;SDS011;26418;50.070;8.436;2023-04-03T00:41:31;4.22;;;1.30;;
40729;SDS011;26418;50.070;8.436;2023-04-03T00:43:57;2.88;;;1.00;;
40729;SDS011;26418;50.070;8.436;2023-04-03T00:46:23;3.00;;;0.90;;
40729;SDS011;26418;50.070;8.436;2023-04-03T00:48:48;2.10;;;1.20;;
40729;SDS011;26418;50.070;8.436;2023-04-03T00:51:33;3.80;;;1.00;;
40729;SDS011;26418;50.070;8.436;2023-04-03T00:54:00;2.05;;;0.82;;
40729;SDS011;26418;50.070;8.436;2023-04-03T00:56:30;4.15;;;1.00;;
40729;SDS011;26418;50.070;8.436;2023-04-03T00:59:15;2.08;;;0.88;;
40729;SDS011;26418;50.070;8.436;2023-04-03T01:01:47;5.32;;;1.10;;
40729;SDS011;26418;50.070;8.436;2023-04-03T01:04:33;4.25;;;0.80;;
40729;SDS011;26418;50.070;8.436;2023-04-03T01:07:02;2.67;;;0.90;;
40729;SDS011;26418;50.070;8.436;2023-04-03T01:09:32;3.45;;;1.23;;
40729;SDS011;26418;50.070;8.436;2023-04-03T01:12:18;3.58;;;1.02;;
40729;SDS011;26418;50.070;8.436;2023-04-03T01:14:49;5.40;;;1.00;;
40729;SDS011;26418;50.070;8.436;2023-04-03T01:25:10;1.42;;;0.70;;
40729;SDS011;26418;50.070;8.436;2023-04-03T01:27:36;2.15;;;0.90;;
40729;SDS011;26418;50.070;8.436;2023-04-03T01:30:01;3.20;;;1.00;;
40729;SDS011;26418;50.070;8.436;2023-04-03T01:32:27;1.33;;;0.65;;
40729;SDS011;26418;50.070;8.436;2023-04-03T01:34:53;4.10;;;1.27;;
40729;SDS011;26418;50.070;8.436;2023-04-03T01:37:19;2.35;;;0.68;;
40729;SDS011;26418;50.070;8.436;2023-04-03T01:39:52;2.33;;;0.98;;
40729;SDS011;26418;50.070;8.436;2023-04-03T01:42:17;3.42;;;1.05;;
40729;SDS011;26418;50.070;8.436;2023-04-03T01:44:43;4.88;;;1.35;;
40729;SDS011;26418;50.070;8.436;2023-04-03T01:47:09;2.10;;;0.80;;
40729;SDS011;26418;50.070;8.436;2023-04-03T01:49:35;2.47;;;0.93;;
40729;SDS011;26418;50.070;8.436;2023-04-03T01:52:00;3.35;;;0.90;;
40729;SDS011;26418;50.070;8.436;2023-04-03T01:54:26;2.55;;;1.15;;
40729;SDS011;26418;50.070;8.436;2023-04-03T01:56:52;1.75;;;0.65;;
40729;SDS011;26418;50.070;8.436;2023-04-03T01:59:17;2.20;;;0.73;;
40729;SDS011;26418;50.070;8.436;2023-04-03T02:01:44;3.45;;;0.90;;
40729;SDS011;26418;50.070;8.436;2023-04-03T02:04:10;6.22;;;0.77;;
40729;SDS011;26418;50.070;8.436;2023-04-03T02:06:37;2.45;;;0.98;;
40729;SDS011;26418;50.070;8.436;2023-04-03T02:09:03;4.45;;;1.00;;
40729;SDS011;26418;50.070;8.436;2023-04-03T02:11:29;3.85;;;1.25;;
40729;SDS011;26418;50.070;8.436;2023-04-03T02:13:55;2.30;;;0.98;;
40729;SDS011;26418;50.070;8.436;2023-04-03T02:16:21;1.13;;;0.70;;
40729;SDS011;26418;50.070;8.436;2023-04-03T02:18:47;3.13;;;1.30;;
40729;SDS011;26418;50.070;8.436;2023-04-03T02:21:13;1.90;;;0.70;;
40729;SDS011;26418;50.070;8.436;2023-04-03T02:23:38;2.70;;;1.25;;
40729;SDS011;26418;50.070;8.436;2023-04-03T02:26:05;1.95;;;0.93;;
40729;SDS011;26418;50.070;8.436;2023-04-03T02:28:33;4.18;;;1.00;;
40729;SDS011;26418;50.070;8.436;2023-04-03T02:30:59;2.45;;;1.02;;
40729;SDS011;26418;50.070;8.436;2023-04-03T02:33:25;5.47;;;1.00;;
40729;SDS011;26418;50.070;8.436;2023-04-03T02:35:54;2.63;;;1.00;;
40729;SDS011;26418;50.070;8.436;2023-04-03T02:38:23;2.67;;;1.05;;
40729;SDS011;26418;50.070;8.436;2023-04-03T02:40:49;3.72;;;1.17;;
40729;SDS011;26418;50.070;8.436;2023-04-03T02:43:15;3.28;;;1.00;;
40729;SDS011;26418;50.070;8.436;2023-04-03T02:45:40;5.15;;;1.17;;
40729;SDS011;26418;50.070;8.436;2023-04-03T02:48:06;5.72;;;1.08;;
40729;SDS011;26418;50.070;8.436;2023-04-03T02:50:31;2.50;;;1.05;;
40729;SDS011;26418;50.070;8.436;2023-04-03T02:52:57;4.78;;;0.82;;
40729;SDS011;26418;50.070;8.436;2023-04-03T02:55:23;3.15;;;1.38;;
40729;SDS011;26418;50.070;8.436;2023-04-03T02:57:48;1.60;;;1.00;;
40729;SDS011;26418;50.070;8.436;2023-04-03T03:00:14;3.65;;;0.95;;
40729;SDS011;26418;50.070;8.436;2023-04-03T03:02:40;6.03;;;1.70;;
40729;SDS011;26418;50.070;8.436;2023-04-03T03:05:06;3.65;;;1.35;;
40729;SDS011;26418;50.070;8.436;2023-04-03T03:07:32;4.07;;;1.17;;
40729;SDS011;26418;50.070;8.436;2023-04-03T03:09:58;4.28;;;1.00;;
40729;SDS011;26418;50.070;8.436;2023-04-03T03:12:23;6.43;;;1.15;;
40729;SDS011;26418;50.070;8.436;2023-04-03T03:14:49;2.80;;;1.05;;
40729;SDS011;26418;50.070;8.436;2023-04-03T03:17:16;4.05;;;1.48;;
40729;SDS011;26418;50.070;8.436;2023-04-03T03:19:42;3.05;;;1.13;;
40729;SDS011;26418;50.070;8.436;2023-04-03T03:22:08;3.58;;;1.13;;
40729;SDS011;26418;50.070;8.436;2023-04-03T03:24:34;4.43;;;1.70;;
40729;SDS011;26418;50.070;8.436;2023-04-03T03:27:00;2.05;;;1.10;;
40729;SDS011;26418;50.070;8.436;2023-04-03T03:29:26;3.33;;;1.00;;
40729;SDS011;26418;50.070;8.436;2023-04-03T03:31:51;2.50;;;0.70;;
40729;SDS011;26418;50.070;8.436;2023-04-03T03:34:17;2.10;;;0.90;;
40729;SDS011;26418;50.070;8.436;2023-04-03T03:36:43;3.35;;;1.00;;
40729;SDS011;26418;50.070;8.436;2023-04-03T03:39:08;3.15;;;0.80;;
40729;SDS011;26418;50.070;8.436;2023-04-03T03:41:35;3.05;;;1.02;;
40729;SDS011;26418;50.070;8.436;2023-04-03T03:44:00;4.53;;;0.90;;
40729;SDS011;26418;50.070;8.436;2023-04-03T03:46:29;4.22;;;0.85;;
40729;SDS011;26418;50.070;8.436;2023-04-03T03:48:55;4.65;;;1.08;;
40729;SDS011;26418;50.070;8.436;2023-04-03T03:51:20;2.03;;;0.68;;
40729;SDS011;26418;50.070;8.436;2023-04-03T03:53:46;7.00;;;1.20;;
40729;SDS011;26418;50.070;8.436;2023-04-03T03:56:12;7.82;;;1.40;;
40729;SDS011;26418;50.070;8.436;2023-04-03T03:58:37;4.38;;;1.13;;
40729;SDS011;26418;50.070;8.436;2023-04-03T04:01:04;3.55;;;1.30;;
40729;SDS011;26418;50.070;8.436;2023-04-03T04:03:33;6.72;;;1.58;;
40729;SDS011;26418;50.070;8.436;2023-04-03T04:05:58;3.90;;;1.00;;
40729;SDS011;26418;50.070;8.436;2023-04-03T04:08:24;7.85;;;1.33;;
40729;SDS011;26418;50.070;8.436;2023-04-03T04:10:50;5.03;;;1.15;;
40729;SDS011;26418;50.070;8.436;2023-04-03T04:13:16;3.60;;;0.88;;
40729;SDS011;26418;50.070;8.436;2023-04-03T04:15:42;5.15;;;0.80;;
40729;SDS011;26418;50.070;8.436;2023-04-03T04:18:08;9.43;;;1.23;;
40729;SDS011;26418;50.070;8.436;2023-04-03T04:20:34;2.60;;;0.88;;
40729;SDS011;26418;50.070;8.436;2023-04-03T04:22:59;5.28;;;0.98;;
40729;SDS011;26418;50.070;8.436;2023-04-03T04:25:25;2.72;;;0.95;;
40729;SDS011;26418;50.070;8.436;2023-04-03T04:27:52;4.72;;;1.10;;
40729;SDS011;26418;50.070;8.436;2023-04-03T04:30:17;4.78;;;1.17;;
40729;SDS011;26418;50.070;8.436;2023-04-03T04:32:43;7.13;;;1.30;;
40729;SDS011;26418;50.070;8.436;2023-04-03T04:35:08;4.70;;;1.30;;
40729;SDS011;26418;50.070;8.436;2023-04-03T04:37:34;4.28;;;1.30;;
40729;SDS011;26418;50.070;8.436;2023-04-03T04:40:01;3.42;;;0.93;;
40729;SDS011;26418;50.070;8.436;2023-04-03T04:42:27;4.68;;;1.25;;
40729;SDS011;26418;50.070;8.436;2023-04-03T04:44:53;3.50;;;1.10;;
40729;SDS011;26418;50.070;8.436;2023-04-03T04:47:18;6.75;;;1.63;;
40729;SDS011;26418;50.070;8.436;2023-04-03T04:49:44;7.68;;;0.90;;
40729;SDS011;26418;50.070;8.436;2023-04-03T04:52:10;5.80;;;1.30;;
40729;SDS011;26418;50.070;8.436;2023-04-03T04:54:36;5.00;;;1.20;;
40729;SDS011;26418;50.070;8.436;2023-04-03T04:57:01;3.70;;;1.38;;
40729;SDS011;26418;50.070;8.436;2023-04-03T04:59:27;4.22;;;1.02;;
40729;SDS011;26418;50.070;8.436;2023-04-03T05:01:52;5.35;;;1.05;;
40729;SDS011;26418;50.070;8.436;2023-04-03T05:04:18;5.55;;;1.10;;
40729;SDS011;26418;50.070;8.436;2023-04-03T05:06:44;4.93;;;1.52;;
40729;SDS011;26418;50.070;8.436;2023-04-03T05:09:09;2.97;;;1.13;;
40729;SDS011;26418;50.070;8.436;2023-04-03T05:11:35;3.17;;;1.20;;
40729;SDS011;26418;50.070;8.436;2023-04-03T05:14:01;2.97;;;1.00;;
40729;SDS011;26418;50.070;8.436;2023-04-03T05:16:27;5.60;;;0.80;;
40729;SDS011;26418;50.070;8.436;2023-04-03T05:19:13;6.43;;;1.23;;
40729;SDS011;26418;50.070;8.436;2023-04-03T05:21:48;6.00;;;2.08;;
40729;SDS011;26418;50.070;8.436;2023-04-03T05:24:36;7.68;;;1.75;;
40729;SDS011;26418;50.070;8.436;2023-04-03T05:27:04;2.47;;;1.05;;
40729;SDS011;26418;50.070;8.436;2023-04-03T05:29:30;4.47;;;1.58;;
40729;SDS011;26418;50.070;8.436;2023-04-03T05:31:56;7.68;;;1.40;;
40729;SDS011;26418;50.070;8.436;2023-04-03T05:34:22;5.20;;;1.50;;
40729;SDS011;26418;50.070;8.436;2023-04-03T05:36:47;4.40;;;1.20;;
40729;SDS011;26418;50.070;8.436;2023-04-03T05:39:14;5.97;;;1.65;;
40729;SDS011;26418;50.070;8.436;2023-04-03T05:42:01;5.30;;;1.30;;
40729;SDS011;26418;50.070;8.436;2023-04-03T05:44:50;3.42;;;1.30;;
40729;SDS011;26418;50.070;8.436;2023-04-03T05:47:16;3.92;;;1.33;;
40729;SDS011;26418;50.070;8.436;2023-04-03T05:49:44;4.85;;;1.50;;
40729;SDS011;26418;50.070;8.436;2023-04-03T05:52:37;6.43;;;1.30;;
40729;SDS011;26418;50.070;8.436;2023-04-03T05:55:36;4.93;;;1.10;;
40729;SDS011;26418;50.070;8.436;2023-04-03T05:58:06;2.25;;;1.10;;
40729;SDS011;26418;50.070;8.436;2023-04-03T06:00:45;6.43;;;1.55;;
40729;SDS011;26418;50.070;8.436;2023-04-03T06:03:17;3.08;;;1.30;;
40729;SDS011;26418;50.070;8.436;2023-04-03T06:05:42;5.13;;;1.38;;
40729;SDS011;26418;50.070;8.436;2023-04-03T06:08:08;2.58;;;1.30;;
40729;SDS011;26418;50.070;8.436;2023-04-03T06:10:35;4.05;;;1.10;;
40729;SDS011;26418;50.070;8.436;2023-04-03T06:13:01;3.95;;;1.25;;
40729;SDS011;26418;50.070;8.436;2023-04-03T06:16:13;5.22;;;1.23;;
40729;SDS011;26418;50.070;8.436;2023-04-03T06:19:17;2.88;;;1.38;;
40729;SDS011;26418;50.070;8.436;2023-04-03T06:23:02;7.40;;;1.35;;
40729;SDS011;26418;50.070;8.436;2023-04-03T06:26:19;3.25;;;0.77;;
40729;SDS011;26418;50.070;8.436;2023-04-03T06:29:47;4.60;;;1.15;;
40729;SDS011;26418;50.070;8.436;2023-04-03T06:32:50;5.03;;;1.40;;
40729;SDS011;26418;50.070;8.436;2023-04-03T06:35:18;5.05;;;1.38;;
40729;SDS011;26418;50.070;8.436;2023-04-03T06:38:38;4.65;;;1.48;;
40729;SDS011;26418;50.070;8.436;2023-04-03T06:45:04;8.30;;;1.40;;
40729;SDS011;26418;50.070;8.436;2023-04-03T06:47:49;9.05;;;1.30;;
40729;SDS011;26418;50.070;8.436;2023-04-03T06:50:20;4.20;;;1.40;;
40729;SDS011;26418;50.070;8.436;2023-04-03T06:53:00;3.65;;;0.88;;
40729;SDS011;26418;50.070;8.436;2023-04-03T07:02:46;3.25;;;1.40;;
40729;SDS011;26418;50.070;8.436;2023-04-03T07:05:21;6.22;;;1.73;;
40729;SDS011;26418;50.070;8.436;2023-04-03T07:08:11;5.30;;;1.42;;
40729;SDS011;26418;50.070;8.436;2023-04-03T07:10:44;5.00;;;1.80;;
40729;SDS011;26418;50.070;8.436;2023-04-03T07:13:16;6.40;;;1.85;;
40729;SDS011;26418;50.070;8.436;2023-04-03T07:16:40;7.32;;;1.55;;
40729;SDS011;26418;50.070;8.436;2023-04-03T07:19:05;4.75;;;1.55;;
40729;SDS011;26418;50.070;8.436;2023-04-03T07:21:33;7.50;;;1.85;;
40729;SDS011;26418;50.070;8.436;2023-04-03T07:23:59;5.28;;;1.55;;
40729;SDS011;26418;50.070;8.436;2023-04-03T07:26:25;2.55;;;1.35;;
40729;SDS011;26418;50.070;8.436;2023-04-03T07:28:51;6.20;;;1.55;;
40729;SDS011;26418;50.070;8.436;2023-04-03T07:31:16;4.47;;;1.50;;
40729;SDS011;26418;50.070;8.436;2023-04-03T07:33:44;5.05;;;1.80;;
40729;SDS011;26418;50.070;8.436;2023-04-03T07:36:11;7.97;;;1.52;;
40729;SDS011;26418;50.070;8.436;2023-04-03T07:38:41;3.53;;;0.98;;
40729;SDS011;26418;50.070;8.436;2023-04-03T07:41:07;6.18;;;1.67;;
40729;SDS011;26418;50.070;8.436;2023-04-03T07:43:39;5.22;;;1.63;;
40729;SDS011;26418;50.070;8.436;2023-04-03T07:46:05;4.97;;;1.63;;
40729;SDS011;26418;50.070;8.436;2023-04-03T07:48:31;5.82;;;1.52;;
40729;SDS011;26418;50.070;8.436;2023-04-03T07:51:00;4.60;;;1.35;;
40729;SDS011;26418;50.070;8.436;2023-04-03T07:53:27;5.28;;;1.50;;
40729;SDS011;26418;50.070;8.436;2023-04-03T07:55:53;8.73;;;2.08;;
40729;SDS011;26418;50.070;8.436;2023-04-03T07:58:21;4.15;;;1.55;;
40729;SDS011;26418;50.070;8.436;2023-04-03T08:00:47;6.80;;;2.47;;
40729;SDS011;26418;50.070;8.436;2023-04-03T08:03:13;3.55;;;1.55;;
40729;SDS011;26418;50.070;8.436;2023-04-03T08:05:42;5.70;;;1.70;;
40729;SDS011;26418;50.070;8.436;2023-04-03T08:08:10;3.50;;;1.40;;
40729;SDS011;26418;50.070;8.436;2023-04-03T08:10:37;7.72;;;2.05;;
40729;SDS011;26418;50.070;8.436;2023-04-03T08:13:03;5.32;;;2.03;;
40729;SDS011;26418;50.070;8.436;2023-04-03T08:15:30;8.50;;;2.40;;
40729;SDS011;26418;50.070;8.436;2023-04-03T08:17:57;4.18;;;2.22;;
40729;SDS011;26418;50.070;8.436;2023-04-03T08:20:24;4.18;;;1.83;;
40729;SDS011;26418;50.070;8.436;2023-04-03T08:23:15;4.47;;;1.90;;
40729;SDS011;26418;50.070;8.436;2023-04-03T08:25:42;2.88;;;1.50;;
40729;SDS011;26418;50.070;8.436;2023-04-03T08:28:09;9.70;;;2.10;;
40729;SDS011;26418;50.070;8.436;2023-04-03T08:30:39;6.07;;;1.67;;
40729;SDS011;26418;50.070;8.436;2023-04-03T08:33:07;3.92;;;1.63;;
40729;SDS011;26418;50.070;8.436;2023-04-03T08:35:44;4.82;;;1.65;;
40729;SDS011;26418;50.070;8.436;2023-04-03T08:38:37;5.68;;;1.70;;
40729;SDS011;26418;50.070;8.436;2023-04-03T08:47:38;5.85;;;1.92;;
40729;SDS011;26418;50.070;8.436;2023-04-03T08:51:21;8.52;;;1.98;;
40729;SDS011;26418;50.070;8.436;2023-04-03T08:54:59;4.88;;;1.45;;
40729;SDS011;26418;50.070;8.436;2023-04-03T08:58:27;7.70;;;1.63;;
40729;SDS011;26418;50.070;8.436;2023-04-03T09:01:17;7.53;;;1.77;;
40729;SDS011;26418;50.070;8.436;2023-04-03T09:04:46;4.03;;;1.40;;
40729;SDS011;26418;50.070;8.436;2023-04-03T09:07:39;5.07;;;1.52;;
40729;SDS011;26418;50.070;8.436;2023-04-03T09:17:14;4.85;;;1.10;;
40729;SDS011;26418;50.070;8.436;2023-04-03T09:24:30;3.42;;;1.30;;
40729;SDS011;26418;50.070;8.436;2023-04-03T09:31:15;5.88;;;1.40;;
40729;SDS011;26418;50.070;8.436;2023-04-03T09:38:21;2.83;;;1.20;;
40729;SDS011;26418;50.070;8.436;2023-04-03T09:44:55;5.17;;;1.37;;
40729;SDS011;26418;50.070;8.436;2023-04-03T09:48:25;3.92;;;1.40;;
40729;SDS011;26418;50.070;8.436;2023-04-03T09:51:29;2.80;;;1.45;;
40729;SDS011;26418;50.070;8.436;2023-04-03T10:08:41;3.67;;;1.83;;
40729;SDS011;26418;50.070;8.436;2023-04-03T10:15:18;3.58;;;1.52;;
40729;SDS011;26418;50.070;8.436;2023-04-03T10:34:46;7.22;;;2.25;;
40729;SDS011;26418;50.070;8.436;2023-04-03T10:54:19;2.90;;;1.33;;
40729;SDS011;26418;50.070;8.436;2023-04-03T10:56:59;8.50;;;1.67;;
40729;SDS011;26418;50.070;8.436;2023-04-03T11:02:36;4.80;;;1.60;;
40729;SDS011;26418;50.070;8.436;2023-04-03T11:05:52;3.20;;;1.35;;
40729;SDS011;26418;50.070;8.436;2023-04-03T11:08:07;3.58;;;1.50;;
40729;SDS011;26418;50.070;8.436;2023-04-03T11:10:57;3.95;;;1.58;;
40729;SDS011;26418;50.070;8.436;2023-04-03T11:16:03;3.70;;;1.60;;
40729;SDS011;26418;50.070;8.436;2023-04-03T11:18:40;3.80;;;1.85;;
40729;SDS011;26418;50.070;8.436;2023-04-03T11:21:20;5.40;;;1.92;;
40729;SDS011;26418;50.070;8.436;2023-04-03T11:24:11;5.28;;;2.03;;
40729;SDS011;26418;50.070;8.436;2023-04-03T11:26:47;4.60;;;2.53;;
40729;SDS011;26418;50.070;8.436;2023-04-03T11:29:25;5.50;;;1.83;;
40729;SDS011;26418;50.070;8.436;2023-04-03T11:34:42;5.57;;;1.80;;
40729;SDS011;26418;50.070;8.436;2023-04-03T11:39:53;4.28;;;1.85;;
40729;SDS011;26418;50.070;8.436;2023-04-03T11:42:24;5.22;;;1.70;;
40729;SDS011;26418;50.070;8.436;2023-04-03T11:53:49;6.72;;;2.42;;
40729;SDS011;26418;50.070;8.436;2023-04-03T11:56:32;3.22;;;1.65;;
40729;SDS011;26418;50.070;8.436;2023-04-03T12:02:34;3.85;;;1.38;;
40729;SDS011;26418;50.070;8.436;2023-04-03T12:05:34;2.03;;;1.30;;
40729;SDS011;26418;50.070;8.436;2023-04-03T12:17:42;2.43;;;1.73;;
40729;SDS011;26418;50.070;8.436;2023-04-03T12:23:33;6.68;;;2.25;;
40729;SDS011;26418;50.070;8.436;2023-04-03T12:26:20;2.63;;;1.50;;
40729;SDS011;26418;50.070;8.436;2023-04-03T12:28:50;2.65;;;1.55;;
40729;SDS011;26418;50.070;8.436;2023-04-03T12:31:18;4.47;;;1.98;;
40729;SDS011;26418;50.070;8.436;2023-04-03T12:37:09;3.55;;;1.98;;
40729;SDS011;26418;50.070;8.436;2023-04-03T12:51:44;4.40;;;1.83;;
40729;SDS011;26418;50.070;8.436;2023-04-03T12:57:52;4.18;;;1.70;;
40729;SDS011;26418;50.070;8.436;2023-04-03T13:01:22;2.42;;;1.15;;
40729;SDS011;26418;50.070;8.436;2023-04-03T13:04:11;7.57;;;1.23;;
40729;SDS011;26418;50.070;8.436;2023-04-03T13:06:43;6.68;;;2.50;;
40729;SDS011;26418;50.070;8.436;2023-04-03T13:09:22;4.85;;;1.85;;
40729;SDS011;26418;50.070;8.436;2023-04-03T13:14:21;3.58;;;1.63;;
40729;SDS011;26418;50.070;8.436;2023-04-03T13:20:13;4.85;;;1.75;;
40729;SDS011;26418;50.070;8.436;2023-04-03T13:22:51;3.33;;;1.15;;
40729;SDS011;26418;50.070;8.436;2023-04-03T13:25:28;3.42;;;1.48;;
40729;SDS011;26418;50.070;8.436;2023-04-03T13:27:57;2.58;;;1.65;;
40729;SDS011;26418;50.070;8.436;2023-04-03T13:30:29;3.65;;;1.33;;
40729;SDS011;26418;50.070;8.436;2023-04-03T13:32:56;3.95;;;1.60;;
40729;SDS011;26418;50.070;8.436;2023-04-03T13:35:40;4.03;;;1.50;;
40729;SDS011;26418;50.070;8.436;2023-04-03T13:38:19;4.38;;;1.20;;
40729;SDS011;26418;50.070;8.436;2023-04-03T13:43:28;4.47;;;1.63;;
40729;SDS011;26418;50.070;8.436;2023-04-03T13:48:34;3.97;;;1.77;;
40729;SDS011;26418;50.070;8.436;2023-04-03T13:51:27;3.80;;;1.65;;
40729;SDS011;26418;50.070;8.436;2023-04-03T13:53:57;3.53;;;1.95;;
40729;SDS011;26418;50.070;8.436;2023-04-03T13:56:35;4.57;;;1.80;;
40729;SDS011;26418;50.070;8.436;2023-04-03T14:07:09;4.50;;;1.80;;
40729;SDS011;26418;50.070;8.436;2023-04-03T14:09:35;4.82;;;1.75;;
40729;SDS011;26418;50.070;8.436;2023-04-03T14:12:05;3.03;;;1.27;;
40729;SDS011;26418;50.070;8.436;2023-04-03T14:14:34;6.25;;;1.98;;
40729;SDS011;26418;50.070;8.436;2023-04-03T14:17:03;7.60;;;2.42;;
40729;SDS011;26418;50.070;8.436;2023-04-03T14:19:35;5.80;;;1.95;;
40729;SDS011;26418;50.070;8.436;2023-04-03T14:22:05;4.50;;;1.70;;
40729;SDS011;26418;50.070;8.436;2023-04-03T14:24:37;2.88;;;1.42;;
40729;SDS011;26418;50.070;8.436;2023-04-03T14:27:05;4.47;;;1.70;;
40729;SDS011;26418;50.070;8.436;2023-04-03T14:29:39;4.40;;;1.80;;
40729;SDS011;26418;50.070;8.436;2023-04-03T14:32:05;3.08;;;1.52;;
40729;SDS011;26418;50.070;8.436;2023-04-03T14:34:31;3.80;;;1.42;;
40729;SDS011;26418;50.070;8.436;2023-04-03T14:36:56;3.28;;;1.52;;
40729;SDS011;26418;50.070;8.436;2023-04-03T14:39:21;5.78;;;1.58;;
40729;SDS011;26418;50.070;8.436;2023-04-03T14:41:47;3.22;;;1.27;;
40729;SDS011;26418;50.070;8.436;2023-04-03T14:44:13;4.25;;;1.25;;
40729;SDS011;26418;50.070;8.436;2023-04-03T14:46:40;2.10;;;1.02;;
40729;SDS011;26418;50.070;8.436;2023-04-03T14:49:12;3.75;;;1.27;;
40729;SDS011;26418;50.070;8.436;2023-04-03T14:51:41;2.17;;;0.98;;
40729;SDS011;26418;50.070;8.436;2023-04-03T14:54:11;3.25;;;1.40;;
40729;SDS011;26418;50.070;8.436;2023-04-03T14:56:39;2.45;;;0.80;;
40729;SDS011;26418;50.070;8.436;2023-04-03T14:59:04;2.17;;;0.98;;
40729;SDS011;26418;50.070;8.436;2023-04-03T15:01:36;3.22;;;0.95;;
40729;SDS011;26418;50.070;8.436;2023-04-03T15:04:01;3.97;;;1.10;;
40729;SDS011;26418;50.070;8.436;2023-04-03T15:06:30;1.73;;;1.10;;
40729;SDS011;26418;50.070;8.436;2023-04-03T15:08:56;1.65;;;0.95;;
40729;SDS011;26418;50.070;8.436;2023-04-03T15:11:22;5.15;;;1.10;;
40729;SDS011;26418;50.070;8.436;2023-04-03T15:13:47;2.42;;;1.10;;
40729;SDS011;26418;50.070;8.436;2023-04-03T15:16:14;3.05;;;0.98;;
40729;SDS011;26418;50.070;8.436;2023-04-03T15:18:42;5.95;;;1.55;;
40729;SDS011;26418;50.070;8.436;2023-04-03T15:21:08;4.10;;;1.33;;
40729;SDS011;26418;50.070;8.436;2023-04-03T15:23:33;4.10;;;1.17;;
40729;SDS011;26418;50.070;8.436;2023-04-03T15:25:59;4.72;;;1.20;;
40729;SDS011;26418;50.070;8.436;2023-04-03T15:28:32;1.83;;;0.80;;
40729;SDS011;26418;50.070;8.436;2023-04-03T15:31:00;2.70;;;0.88;;
40729;SDS011;26418;50.070;8.436;2023-04-03T15:33:26;1.45;;;0.90;;
40729;SDS011;26418;50.070;8.436;2023-04-03T15:35:52;3.13;;;1.48;;
40729;SDS011;26418;50.070;8.436;2023-04-03T15:38:18;1.88;;;0.90;;
40729;SDS011;26418;50.070;8.436;2023-04-03T15:40:44;1.80;;;0.85;;
40729;SDS011;26418;50.070;8.436;2023-04-03T15:43:12;2.72;;;0.85;;
40729;SDS011;26418;50.070;8.436;2023-04-03T15:45:39;3.33;;;0.73;;
40729;SDS011;26418;50.070;8.436;2023-04-03T15:48:05;2.45;;;1.10;;
40729;SDS011;26418;50.070;8.436;2023-04-03T15:50:32;3.85;;;0.80;;
40729;SDS011;26418;50.070;8.436;2023-04-03T15:52:58;4.28;;;1.00;;
40729;SDS011;26418;50.070;8.436;2023-04-03T15:55:24;4.28;;;1.20;;
40729;SDS011;26418;50.070;8.436;2023-04-03T15:57:51;4.60;;;1.10;;
40729;SDS011;26418;50.070;8.436;2023-04-03T16:00:17;2.75;;;1.02;;
40729;SDS011;26418;50.070;8.436;2023-04-03T16:02:44;3.13;;;1.35;;
40729;SDS011;26418;50.070;8.436;2023-04-03T16:05:10;1.52;;;0.63;;
40729;SDS011;26418;50.070;8.436;2023-04-03T16:07:40;2.08;;;0.60;;
40729;SDS011;26418;50.070;8.436;2023-04-03T16:10:06;1.13;;;0.93;;
40729;SDS011;26418;50.070;8.436;2023-04-03T16:12:33;2.35;;;0.93;;
40729;SDS011;26418;50.070;8.436;2023-04-03T16:14:58;3.00;;;0.73;;
40729;SDS011;26418;50.070;8.436;2023-04-03T16:17:23;2.25;;;0.90;;
40729;SDS011;26418;50.070;8.436;2023-04-03T16:19:51;3.35;;;0.63;;
40729;SDS011;26418;50.070;8.436;2023-04-03T16:22:16;2.90;;;1.00;;
40729;SDS011;26418;50.070;8.436;2023-04-03T16:24:42;2.28;;;0.70;;
40729;SDS011;26418;50.070;8.436;2023-04-03T16:27:07;3.33;;;0.90;;
40729;SDS011;26418;50.070;8.436;2023-04-03T16:29:32;3.22;;;0.88;;
40729;SDS011;26418;50.070;8.436;2023-04-03T16:31:58;3.00;;;0.90;;
40729;SDS011;26418;50.070;8.436;2023-04-03T16:34:24;2.65;;;1.05;;
40729;SDS011;26418;50.070;8.436;2023-04-03T16:36:50;3.10;;;1.10;;
40729;SDS011;26418;50.070;8.436;2023-04-03T16:39:20;3.13;;;0.93;;
40729;SDS011;26418;50.070;8.436;2023-04-03T16:41:45;1.13;;;0.60;;
40729;SDS011;26418;50.070;8.436;2023-04-03T16:44:10;1.42;;;0.50;;
40729;SDS011;26418;50.070;8.436;2023-04-03T16:46:36;3.40;;;0.85;;
40729;SDS011;26418;50.070;8.436;2023-04-03T16:49:01;9.43;;;1.00;;
40729;SDS011;26418;50.070;8.436;2023-04-03T16:51:27;5.38;;;1.25;;
40729;SDS011;26418;50.070;8.436;2023-04-03T16:53:52;1.63;;;0.65;;
40729;SDS011;26418;50.070;8.436;2023-04-03T16:56:18;2.72;;;0.90;;
40729;SDS011;26418;50.070;8.436;2023-04-03T16:58:43;7.60;;;1.40;;
40729;SDS011;26418;50.070;8.436;2023-04-03T17:01:09;1.55;;;0.77;;
40729;SDS011;26418;50.070;8.436;2023-04-03T17:03:36;3.75;;;0.73;;
40729;SDS011;26418;50.070;8.436;2023-04-03T17:06:01;5.78;;;0.90;;
40729;SDS011;26418;50.070;8.436;2023-04-03T17:08:27;1.55;;;0.77;;
40729;SDS011;26418;50.070;8.436;2023-04-03T17:10:52;3.90;;;0.65;;
40729;SDS011;26418;50.070;8.436;2023-04-03T17:13:18;6.65;;;1.10;;
40729;SDS011;26418;50.070;8.436;2023-04-03T17:15:44;2.75;;;0.70;;
40729;SDS011;26418;50.070;8.436;2023-04-03T17:18:09;7.13;;;1.33;;
40729;SDS011;26418;50.070;8.436;2023-04-03T17:20:35;4.88;;;1.05;;
40729;SDS011;26418;50.070;8.436;2023-04-03T17:23:02;1.67;;;0.73;;
40729;SDS011;26418;50.070;8.436;2023-04-03T17:25:28;3.35;;;1.00;;
40729;SDS011;26418;50.070;8.436;2023-04-03T17:27:53;2.30;;;0.60;;
40729;SDS011;26418;50.070;8.436;2023-04-03T17:30:19;2.40;;;0.75;;
40729;SDS011;26418;50.070;8.436;2023-04-03T17:32:44;1.88;;;0.77;;
40729;SDS011;26418;50.070;8.436;2023-04-03T17:35:10;2.63;;;1.05;;
40729;SDS011;26418;50.070;8.436;2023-04-03T17:37:35;3.72;;;1.10;;
40729;SDS011;26418;50.070;8.436;2023-04-03T17:40:01;1.23;;;1.00;;
40729;SDS011;26418;50.070;8.436;2023-04-03T17:42:26;3.60;;;1.05;;
40729;SDS011;26418;50.070;8.436;2023-04-03T17:44:52;4.47;;;1.25;;
40729;SDS011;26418;50.070;8.436;2023-04-03T17:47:17;2.05;;;1.10;;
40729;SDS011;26418;50.070;8.436;2023-04-03T17:49:42;3.08;;;1.00;;
40729;SDS011;26418;50.070;8.436;2023-04-03T17:52:08;3.38;;;1.00;;
40729;SDS011;26418;50.070;8.436;2023-04-03T17:54:33;5.15;;;1.10;;
40729;SDS011;26418;50.070;8.436;2023-04-03T17:56:59;3.45;;;1.02;;
40729;SDS011;26418;50.070;8.436;2023-04-03T17:59:24;1.92;;;0.77;;
40729;SDS011;26418;50.070;8.436;2023-04-03T18:01:50;1.75;;;1.08;;
40729;SDS011;26418;50.070;8.436;2023-04-03T18:04:16;2.78;;;1.40;;
40729;SDS011;26418;50.070;8.436;2023-04-03T18:06:43;3.15;;;0.70;;
40729;SDS011;26418;50.070;8.436;2023-04-03T18:09:11;2.38;;;0.90;;